Time;durP1;ratioP1;P1;durP2;ratioP2;P2;SDS_P1;SDS_P2;PMS_P1;PMS_P2;Temp;Humidity;BMP_temperature;BMP_pressure;BME280_temperature;BME280_humidity;BME280_pressure;Samples;Min_cycle;Max_cycle;Signal;HPM_P1;HPM_P2
2023/08/27 00:00:39;;;;;;;1999.90;999.90;;;12.40;99.90;;;;;;5079370;28;20096;-68
2023/08/27 00:03:04;;;;;;;1999.90;999.90;;;12.40;99.90;;;;;;5085306;28;20048;-68
2023/08/27 00:05:30;;;;;;;1999.90;999.90;;;12.40;99.90;;;;;;5069410;28;20401;-68
2023/08/27 00:07:56;;;;;;;1999.90;999.90;;;12.40;99.90;;;;;;5086777;28;20033;-68
2023/08/27 00:10:21;;;;;;;1999.90;999.90;;;12.50;99.90;;;;;;5083913;28;20124;-68
2023/08/27 00:12:47;;;;;;;1999.90;999.90;;;12.40;99.90;;;;;;5089416;28;20040;-68
2023/08/27 00:15:13;;;;;;;1999.90;999.90;;;12.40;99.90;;;;;;5070710;28;20047;-68
2023/08/27 00:17:38;;;;;;;1999.90;999.90;;;12.40;99.90;;;;;;5081796;28;20045;-68
2023/08/27 00:20:09;;;;;;;1999.90;999.90;;;12.40;99.90;;;;;;5088362;28;20051;-68
2023/08/27 00:22:35;;;;;;;1999.90;999.90;;;12.40;99.90;;;;;;5088271;28;20114;-68
2023/08/27 00:25:01;;;;;;;1999.90;999.90;;;12.30;99.90;;;;;;5078473;28;20584;-68
2023/08/27 00:27:26;;;;;;;1999.90;999.90;;;12.30;99.90;;;;;;5072434;28;20076;-68
2023/08/27 00:29:52;;;;;;;1999.90;999.90;;;12.30;99.90;;;;;;5088486;28;20523;-68
2023/08/27 00:32:18;;;;;;;1999.90;999.90;;;12.30;99.90;;;;;;5089027;28;20853;-68
2023/08/27 00:34:43;;;;;;;1999.90;999.90;;;12.30;99.90;;;;;;5083121;28;20143;-68
2023/08/27 00:37:09;;;;;;;1999.90;999.90;;;12.30;99.90;;;;;;5069568;28;20555;-68
2023/08/27 00:39:36;;;;;;;1999.90;999.90;;;12.30;99.90;;;;;;5084244;28;20044;-68
2023/08/27 00:42:05;;;;;;;1999.90;999.90;;;12.30;99.90;;;;;;5088782;28;20139;-68
2023/08/27 00:44:31;;;;;;;1999.90;999.90;;;12.30;99.90;;;;;;5081425;28;20051;-68
2023/08/27 00:46:57;;;;;;;1999.90;999.90;;;12.20;99.90;;;;;;5088098;28;20567;-68
2023/08/27 00:49:23;;;;;;;1999.90;999.90;;;12.30;99.90;;;;;;5082000;28;20036;-68
2023/08/27 00:51:49;;;;;;;1999.90;999.90;;;12.30;99.90;;;;;;5104186;28;20040;-68
2023/08/27 00:54:15;;;;;;;1999.90;999.90;;;12.30;99.90;;;;;;5071797;28;20044;-68
2023/08/27 00:56:44;;;;;;;1999.90;999.90;;;12.30;99.90;;;;;;5074060;28;20048;-68
2023/08/27 00:59:11;;;;;;;1999.90;999.90;;;12.30;99.90;;;;;;5086469;28;20089;-68
2023/08/27 01:01:38;;;;;;;1999.90;999.90;;;12.30;99.90;;;;;;5083074;28;20036;-68
2023/08/27 01:04:04;;;;;;;1999.90;999.90;;;12.40;99.90;;;;;;5084348;28;20133;-68
2023/08/27 01:06:30;;;;;;;1999.90;999.90;;;12.40;99.90;;;;;;5088272;28;20032;-68
2023/08/27 01:09:21;;;;;;;1999.90;999.90;;;12.40;99.90;;;;;;5102742;28;20040;-68
2023/08/27 01:11:59;;;;;;;1999.90;999.90;;;12.40;99.90;;;;;;5087739;28;20040;-68
2023/08/27 01:14:29;;;;;;;1999.90;999.90;;;12.50;99.90;;;;;;5083795;28;20044;-68
2023/08/27 01:16:57;;;;;;;1999.90;999.90;;;12.50;99.90;;;;;;5088200;28;20097;-68
2023/08/27 01:19:24;;;;;;;1999.90;999.90;;;12.50;99.90;;;;;;5088440;28;20377;-68
2023/08/27 01:21:49;;;;;;;1999.90;999.90;;;12.50;99.90;;;;;;5081540;28;20059;-68
2023/08/27 01:24:15;;;;;;;1999.90;999.90;;;12.50;99.90;;;;;;5087282;28;20032;-68
2023/08/27 01:26:46;;;;;;;1999.90;999.90;;;12.50;99.90;;;;;;5085684;28;20036;-68
2023/08/27 01:29:36;;;;;;;1999.90;999.90;;;12.50;99.90;;;;;;5088437;28;20047;-68
2023/08/27 01:32:34;;;;;;;1999.90;999.90;;;12.50;99.90;;;;;;5087282;28;20080;-68
2023/08/27 01:35:03;;;;;;;1999.90;999.90;;;12.50;99.90;;;;;;5070756;28;20172;-68
2023/08/27 01:37:29;;;;;;;1999.90;999.90;;;12.50;99.90;;;;;;5086161;28;20039;-68
2023/08/27 01:39:59;;;;;;;1999.90;999.90;;;12.50;99.90;;;;;;5087236;28;20040;-68
2023/08/27 01:42:25;;;;;;;1999.90;999.90;;;12.50;99.90;;;;;;5066737;28;20198;-68
2023/08/27 01:44:50;;;;;;;1999.90;999.90;;;12.50;99.90;;;;;;5082744;28;20833;-68
2023/08/27 01:47:16;;;;;;;1999.90;999.90;;;12.50;99.90;;;;;;5100646;28;20139;-68
2023/08/27 01:49:42;;;;;;;1999.90;999.90;;;12.50;99.90;;;;;;5069164;28;20119;-68
2023/08/27 01:52:08;;;;;;;1999.90;999.90;;;12.40;99.90;;;;;;5087408;28;20040;-68
2023/08/27 01:54:33;;;;;;;1999.90;999.90;;;12.40;99.90;;;;;;5086912;28;20036;-68
2023/08/27 01:56:59;;;;;;;1999.90;999.90;;;12.40;99.90;;;;;;5087170;28;20519;-68
2023/08/27 01:59:24;;;;;;;1999.90;999.90;;;12.40;99.90;;;;;;5076176;28;20047;-68
2023/08/27 02:01:50;;;;;;;1999.90;999.90;;;12.40;99.90;;;;;;5096512;28;20173;-68
2023/08/27 02:04:16;;;;;;;1999.90;999.90;;;12.40;99.90;;;;;;5094261;28;20392;-68
2023/08/27 02:06:41;;;;;;;1999.90;999.90;;;12.40;99.90;;;;;;5086849;28;20047;-68
2023/08/27 02:09:07;;;;;;;1999.90;999.90;;;12.30;99.90;;;;;;5077430;28;20040;-68
2023/08/27 02:11:33;;;;;;;1999.90;999.90;;;12.30;99.90;;;;;;5082109;28;20044;-68
2023/08/27 02:13:59;;;;;;;1999.90;999.90;;;12.30;99.90;;;;;;5083073;28;20067;-68
2023/08/27 02:16:25;;;;;;;1999.90;999.90;;;12.30;99.90;;;;;;5070200;28;20511;-68
2023/08/27 02:18:50;;;;;;;1999.90;999.90;;;12.30;99.90;;;;;;5065064;28;20058;-69
2023/08/27 02:21:16;;;;;;;1999.90;999.90;;;12.30;99.90;;;;;;5102469;28;20040;-68
2023/08/27 02:23:42;;;;;;;1999.90;999.90;;;12.20;99.90;;;;;;5094550;28;20052;-68
2023/08/27 02:26:08;;;;;;;1999.90;999.90;;;12.20;99.90;;;;;;5086808;28;20119;-68
2023/08/27 02:28:33;;;;;;;1999.90;999.90;;;12.20;99.90;;;;;;5099553;28;20506;-69
2023/08/27 02:30:59;;;;;;;1999.90;999.90;;;12.20;99.90;;;;;;5103548;28;20084;-69
2023/08/27 02:33:25;;;;;;;1999.90;999.90;;;12.20;99.90;;;;;;5099417;28;20047;-68
2023/08/27 02:35:50;;;;;;;1999.90;999.90;;;12.20;99.90;;;;;;5076547;28;20134;-69
2023/08/27 02:38:17;;;;;;;1999.90;999.90;;;12.10;99.90;;;;;;5064175;28;20050;-68
2023/08/27 02:40:43;;;;;;;1999.90;999.90;;;12.10;99.90;;;;;;5063959;28;20046;-68
2023/08/27 02:43:09;;;;;;;1999.90;999.90;;;12.10;99.90;;;;;;5085951;28;20044;-69
2023/08/27 02:45:35;;;;;;;1999.90;999.90;;;12.10;99.90;;;;;;5099919;28;20036;-68
2023/08/27 02:48:00;;;;;;;1999.90;999.90;;;12.10;99.90;;;;;;5086627;28;20043;-68
2023/08/27 02:50:26;;;;;;;1999.90;999.90;;;12.10;99.90;;;;;;5085017;28;20454;-68
2023/08/27 02:52:52;;;;;;;1999.90;999.90;;;12.10;99.90;;;;;;5070590;28;21556;-69
2023/08/27 02:55:17;;;;;;;1999.90;999.90;;;12.10;99.90;;;;;;5069645;28;20076;-69
2023/08/27 02:57:43;;;;;;;1999.90;999.90;;;12.10;99.90;;;;;;5087677;28;20658;-68
2023/08/27 03:00:09;;;;;;;1999.90;999.90;;;12.10;99.90;;;;;;5068802;28;20052;-68
2023/08/27 03:02:34;;;;;;;1999.90;999.90;;;12.10;99.90;;;;;;5084388;28;20044;-69
2023/08/27 03:05:04;;;;;;;1999.90;999.90;;;12.10;99.90;;;;;;5086014;28;20525;-69
2023/08/27 03:07:30;;;;;;;1999.90;999.90;;;12.00;99.90;;;;;;5086365;28;20082;-69
2023/08/27 03:09:55;;;;;;;1999.90;999.90;;;12.00;99.90;;;;;;5062615;28;20071;-69
2023/08/27 03:12:21;;;;;;;1999.90;999.90;;;12.00;99.90;;;;;;5083321;28;20440;-69
2023/08/27 03:14:46;;;;;;;1999.90;999.90;;;11.90;99.90;;;;;;5067006;28;20084;-69
2023/08/27 03:17:12;;;;;;;1999.90;999.90;;;12.00;99.90;;;;;;5064412;28;20121;-69
2023/08/27 03:19:38;;;;;;;1999.90;999.90;;;12.00;99.90;;;;;;5086717;28;20039;-69
2023/08/27 03:22:03;;;;;;;1999.90;999.90;;;12.10;99.90;;;;;;5069527;28;20047;-69
2023/08/27 03:24:29;;;;;;;1999.90;999.90;;;12.20;99.90;;;;;;5086250;28;20072;-69
2023/08/27 03:26:54;;;;;;;1999.90;999.90;;;12.20;99.90;;;;;;5061777;28;20131;-69
2023/08/27 03:29:21;;;;;;;1999.90;999.90;;;12.20;99.90;;;;;;5081504;28;20035;-69
2023/08/27 03:31:47;;;;;;;1999.90;999.90;;;12.30;99.90;;;;;;5084771;28;20118;-69
2023/08/27 03:34:13;;;;;;;1999.90;999.90;;;12.30;99.90;;;;;;5082300;28;20043;-69
2023/08/27 03:36:39;;;;;;;1999.90;999.90;;;12.30;99.90;;;;;;5078734;28;20056;-69
2023/08/27 03:39:05;;;;;;;1999.90;999.90;;;12.40;99.90;;;;;;5086018;28;20039;-69
2023/08/27 03:41:31;;;;;;;1999.90;999.90;;;12.40;99.90;;;;;;5087838;28;20048;-69
2023/08/27 03:43:57;;;;;;;1999.90;999.90;;;12.40;99.90;;;;;;5083414;28;20048;-69
2023/08/27 03:46:22;;;;;;;1999.90;999.90;;;12.40;99.90;;;;;;5081199;28;20127;-69
2023/08/27 03:48:48;;;;;;;1999.90;999.90;;;12.50;99.90;;;;;;5091791;28;20195;-69
2023/08/27 03:51:14;;;;;;;1999.90;999.90;;;12.50;99.90;;;;;;5087210;28;20036;-69
2023/08/27 03:53:40;;;;;;;1999.90;999.90;;;12.50;99.90;;;;;;5085637;28;20104;-69
2023/08/27 03:56:06;;;;;;;1999.90;999.90;;;12.50;99.90;;;;;;5089678;28;20449;-69
2023/08/27 03:58:32;;;;;;;1999.90;999.90;;;12.60;99.90;;;;;;5089138;28;20775;-69
2023/08/27 04:00:57;;;;;;;1999.90;999.90;;;12.60;99.90;;;;;;5104392;28;20082;-69
2023/08/27 04:03:23;;;;;;;1999.90;999.90;;;12.60;99.90;;;;;;5082292;28;20040;-69
2023/08/27 04:05:49;;;;;;;1999.90;999.90;;;12.60;99.90;;;;;;5089609;28;20056;-69
2023/08/27 04:08:18;;;;;;;1999.90;999.90;;;12.70;99.90;;;;;;5072525;28;20040;-69
2023/08/27 04:10:54;;;;;;;1999.90;999.90;;;12.70;99.90;;;;;;5089540;28;20040;-69
2023/08/27 04:13:19;;;;;;;1999.90;999.90;;;12.70;99.90;;;;;;5072411;28;20036;-69
2023/08/27 04:16:06;;;;;;;1999.90;999.90;;;12.70;99.90;;;;;;5090339;28;20044;-69
2023/08/27 04:18:34;;;;;;;1999.90;999.90;;;12.70;99.90;;;;;;5078074;28;20085;-69
2023/08/27 04:21:01;;;;;;;1999.90;999.90;;;12.70;99.90;;;;;;5089681;28;20119;-69
2023/08/27 04:23:27;;;;;;;1999.90;999.90;;;12.70;99.90;;;;;;5086615;28;20048;-69
2023/08/27 04:25:53;;;;;;;1999.90;999.90;;;12.70;99.90;;;;;;5101294;28;20040;-69
2023/08/27 04:28:20;;;;;;;1999.90;999.90;;;12.70;99.90;;;;;;5072202;28;20043;-69
2023/08/27 04:30:49;;;;;;;1999.90;999.90;;;12.70;99.90;;;;;;5089005;28;20044;-69
2023/08/27 04:33:16;;;;;;;1999.90;999.90;;;12.70;99.90;;;;;;5084419;28;20075;-69
2023/08/27 04:35:44;;;;;;;1999.90;999.90;;;12.70;99.90;;;;;;5082446;28;20035;-69
2023/08/27 04:38:10;;;;;;;1999.90;999.90;;;12.70;99.90;;;;;;5089081;28;20070;-69
2023/08/27 04:40:36;;;;;;;1999.90;999.90;;;12.70;99.90;;;;;;5087642;28;20043;-69
2023/08/27 04:43:02;;;;;;;1999.90;999.90;;;12.60;99.90;;;;;;5088786;28;20036;-70
2023/08/27 04:45:28;;;;;;;1999.90;999.90;;;12.60;99.90;;;;;;5071817;28;20043;-69
2023/08/27 04:47:54;;;;;;;1999.90;999.90;;;12.60;99.90;;;;;;5082264;28;20511;-69
2023/08/27 04:50:20;;;;;;;1999.90;999.90;;;12.60;99.90;;;;;;5101411;28;20040;-69
2023/08/27 04:52:45;;;;;;;1999.90;999.90;;;12.60;99.90;;;;;;5073116;28;20487;-69
2023/08/27 04:55:11;;;;;;;1999.90;999.90;;;12.60;99.90;;;;;;5092507;28;20052;-69
2023/08/27 04:57:37;;;;;;;1999.90;999.90;;;12.50;99.90;;;;;;5087194;28;20038;-69
2023/08/27 05:00:07;;;;;;;1999.90;999.90;;;12.50;99.90;;;;;;5086815;28;20661;-69
2023/08/27 05:02:35;;;;;;;1999.90;999.90;;;12.60;99.90;;;;;;5066186;28;20395;-69
2023/08/27 05:05:01;;;;;;;1999.90;999.90;;;12.60;99.90;;;;;;5087968;28;20052;-69
2023/08/27 05:07:27;;;;;;;1999.90;999.90;;;12.60;99.90;;;;;;5087420;28;20032;-69
2023/08/27 05:09:52;;;;;;;1999.90;999.90;;;12.60;99.90;;;;;;5081986;28;20075;-69
2023/08/27 05:12:18;;;;;;;1999.90;999.90;;;12.60;99.90;;;;;;5088443;28;20136;-69
2023/08/27 05:14:43;;;;;;;1999.90;999.90;;;12.60;99.90;;;;;;5079695;28;20039;-69
2023/08/27 05:17:10;;;;;;;1999.90;999.90;;;12.70;99.90;;;;;;5071357;28;20093;-69
2023/08/27 05:19:35;;;;;;;1999.90;999.90;;;12.70;99.90;;;;;;5088036;28;20092;-69
2023/08/27 05:22:02;;;;;;;1999.90;999.90;;;12.70;99.90;;;;;;5086256;28;20135;-69
2023/08/27 05:24:27;;;;;;;1999.90;999.90;;;12.80;99.90;;;;;;5085498;28;20036;-69
2023/08/27 05:26:53;;;;;;;1999.90;999.90;;;12.80;99.90;;;;;;5094958;28;20503;-69
2023/08/27 05:29:18;;;;;;;1999.90;999.90;;;12.90;99.90;;;;;;5104826;28;20059;-70
2023/08/27 05:31:44;;;;;;;1999.90;999.90;;;13.00;99.90;;;;;;5071316;28;20036;-69
2023/08/27 05:34:10;;;;;;;1999.90;999.90;;;13.20;99.90;;;;;;5083131;28;20048;-69
2023/08/27 05:36:36;;;;;;;1999.90;999.90;;;13.30;99.90;;;;;;5087725;28;20043;-70
2023/08/27 05:39:02;;;;;;;1999.90;999.90;;;13.50;99.90;;;;;;5104242;28;20036;-69
2023/08/27 05:41:27;;;;;;;1999.90;999.90;;;13.60;99.90;;;;;;5081048;28;20040;-69
2023/08/27 05:43:53;;;;;;;1999.90;999.90;;;13.60;99.90;;;;;;5091826;28;20098;-69
2023/08/27 05:46:19;;;;;;;1999.90;999.90;;;13.70;99.90;;;;;;5078057;28;20032;-69
2023/08/27 05:48:44;;;;;;;1999.90;999.90;;;13.70;99.90;;;;;;5095340;28;20071;-69
2023/08/27 05:51:10;;;;;;;1999.90;999.90;;;13.80;99.90;;;;;;5087942;28;20094;-69
2023/08/27 05:53:35;;;;;;;1999.90;999.90;;;13.80;99.90;;;;;;5088836;28;20491;-69
2023/08/27 05:56:01;;;;;;;1999.90;999.90;;;13.90;99.90;;;;;;5070651;28;20091;-69
2023/08/27 05:58:27;;;;;;;1999.90;999.90;;;13.90;99.90;;;;;;5088021;28;20806;-69
2023/08/27 06:00:56;;;;;;;1999.90;999.90;;;13.90;99.90;;;;;;5099063;28;20042;-69
2023/08/27 06:03:22;;;;;;;1999.90;999.90;;;14.00;99.90;;;;;;5081136;28;20097;-69
2023/08/27 06:05:48;;;;;;;1999.90;999.90;;;14.00;99.90;;;;;;5103821;28;20048;-69
2023/08/27 06:08:14;;;;;;;1999.90;999.90;;;14.00;99.90;;;;;;5085703;28;20036;-69
2023/08/27 06:10:40;;;;;;;1999.90;999.90;;;14.00;99.90;;;;;;5091948;28;20473;-69
2023/08/27 06:13:05;;;;;;;1999.90;999.90;;;14.00;99.90;;;;;;5087923;28;20032;-69
2023/08/27 06:15:34;;;;;;;1999.90;999.90;;;14.10;99.90;;;;;;5077017;28;20044;-69
2023/08/27 06:18:03;;;;;;;1999.90;999.90;;;14.10;99.90;;;;;;5085971;28;20036;-69
2023/08/27 06:20:29;;;;;;;1999.90;999.90;;;14.20;99.90;;;;;;5078986;28;20047;-69
2023/08/27 06:22:54;;;;;;;1999.90;999.90;;;14.20;99.90;;;;;;5086391;28;20433;-69
2023/08/27 06:25:23;;;;;;;1999.90;999.90;;;14.20;99.90;;;;;;5069972;28;20127;-69
2023/08/27 06:27:49;;;;;;;1999.90;999.90;;;14.20;99.90;;;;;;5075105;28;20094;-69
2023/08/27 06:30:14;;;;;;;1999.90;999.90;;;14.30;99.90;;;;;;5086050;28;20396;-69
2023/08/27 06:32:40;;;;;;;1999.90;999.90;;;14.30;99.90;;;;;;5085227;28;20052;-69
2023/08/27 06:35:06;;;;;;;1999.90;999.90;;;14.20;99.90;;;;;;5086557;28;20082;-69
2023/08/27 06:37:32;;;;;;;1999.90;999.90;;;14.30;99.90;;;;;;5085490;28;20043;-69
2023/08/27 06:39:57;;;;;;;1999.90;999.90;;;14.30;99.90;;;;;;5082913;28;20115;-69
2023/08/27 06:42:23;;;;;;;1999.90;999.90;;;14.40;99.90;;;;;;5086555;28;20086;-69
2023/08/27 06:44:48;;;;;;;1999.90;999.90;;;14.30;99.90;;;;;;5086565;28;20075;-69
2023/08/27 06:47:14;;;;;;;1999.90;999.90;;;14.30;99.90;;;;;;5098567;28;20064;-69
2023/08/27 06:49:40;;;;;;;1999.90;999.90;;;14.30;99.90;;;;;;5079777;28;20504;-69
2023/08/27 06:52:06;;;;;;;1999.90;999.90;;;14.30;99.90;;;;;;5086275;28;20043;-69
2023/08/27 06:54:31;;;;;;;1999.90;999.90;;;14.40;99.90;;;;;;5084598;28;20123;-69
2023/08/27 06:56:57;;;;;;;1999.90;999.90;;;14.50;99.90;;;;;;5086489;28;20124;-68
2023/08/27 06:59:22;;;;;;;1999.90;999.90;;;14.50;99.90;;;;;;5069411;28;20779;-68
2023/08/27 07:01:48;;;;;;;1999.90;999.90;;;14.60;99.90;;;;;;5081576;28;20105;-69
2023/08/27 07:04:14;;;;;;;1999.90;999.90;;;14.60;99.90;;;;;;5092298;28;20415;-68
2023/08/27 07:06:39;;;;;;;1999.90;999.90;;;14.70;99.90;;;;;;5088011;28;20483;-68
2023/08/27 07:09:05;;;;;;;1999.90;999.90;;;14.70;99.90;;;;;;5096540;28;20519;-69
2023/08/27 07:11:31;;;;;;;1999.90;999.90;;;14.70;99.90;;;;;;5101633;28;20071;-69
2023/08/27 07:13:57;;;;;;;1999.90;999.90;;;14.80;99.90;;;;;;5086636;28;20788;-69
2023/08/27 07:16:23;;;;;;;1999.90;999.90;;;14.80;99.90;;;;;;5080381;28;20059;-68
2023/08/27 07:18:50;;;;;;;1999.90;999.90;;;14.80;99.90;;;;;;5086321;28;20584;-69
2023/08/27 07:21:15;;;;;;;1999.90;999.90;;;14.80;99.90;;;;;;5067196;28;20075;-69
2023/08/27 07:23:41;;;;;;;1999.90;999.90;;;14.80;99.90;;;;;;5066559;28;20127;-69
2023/08/27 07:26:06;;;;;;;1999.90;999.90;;;14.90;99.90;;;;;;5098332;28;20501;-69
2023/08/27 07:28:32;;;;;;;1999.90;999.90;;;14.90;99.90;;;;;;5103160;28;20085;-68
2023/08/27 07:30:57;;;;;;;1999.90;999.90;;;15.10;99.90;;;;;;5096836;28;20119;-69
2023/08/27 07:33:23;;;;;;;1999.90;999.90;;;15.30;99.90;;;;;;5089357;28;20051;-69
2023/08/27 07:35:49;;;;;;;1999.90;999.90;;;15.50;99.90;;;;;;5089953;28;20040;-69
2023/08/27 07:38:15;;;;;;;1999.90;999.90;;;15.60;99.90;;;;;;5073186;28;20040;-69
2023/08/27 07:40:41;;;;;;;1999.90;999.90;;;15.80;99.90;;;;;;5084346;28;20516;-68
2023/08/27 07:43:07;;;;;;;1999.90;999.90;;;15.90;99.90;;;;;;5089980;28;20131;-69
2023/08/27 07:45:33;;;;;;;1999.90;999.90;;;15.90;99.90;;;;;;5089709;28;20774;-69
2023/08/27 07:47:59;;;;;;;1999.90;999.90;;;15.90;99.90;;;;;;5089561;28;20055;-69
2023/08/27 07:50:28;;;;;;;1999.90;999.90;;;15.80;99.90;;;;;;5081949;28;20118;-69
2023/08/27 07:52:54;;;;;;;1999.90;999.90;;;15.90;99.90;;;;;;5097876;28;20039;-69
2023/08/27 07:55:20;;;;;;;1999.90;999.90;;;15.90;99.90;;;;;;5090650;28;20055;-69
2023/08/27 07:57:45;;;;;;;1999.90;999.90;;;15.90;99.90;;;;;;5086771;28;20101;-69
2023/08/27 08:00:15;;;;;;;1999.90;999.90;;;16.10;99.90;;;;;;5089781;28;20148;-69
2023/08/27 08:02:41;;;;;;;1999.90;999.90;;;16.10;99.90;;;;;;5082065;28;20048;-69
2023/08/27 08:05:08;;;;;;;1999.90;999.90;;;16.20;99.90;;;;;;5090743;28;20060;-68
2023/08/27 08:07:35;;;;;;;1999.90;999.90;;;16.10;99.90;;;;;;5089019;28;20511;-69
2023/08/27 08:10:01;;;;;;;1999.90;999.90;;;16.20;99.90;;;;;;5080278;28;20073;-68
2023/08/27 08:12:26;;;;;;;1999.90;999.90;;;16.20;99.90;;;;;;5087382;28;20043;-69
2023/08/27 08:14:52;;;;;;;1999.90;999.90;;;16.20;99.90;;;;;;5090500;28;20039;-68
2023/08/27 08:17:18;;;;;;;1999.90;999.90;;;16.30;99.90;;;;;;5069968;28;20047;-69
2023/08/27 08:19:43;;;;;;;1999.90;999.90;;;16.40;99.90;;;;;;5091779;28;20040;-69
2023/08/27 08:22:09;;;;;;;1999.90;999.90;;;16.40;99.90;;;;;;5081641;28;20201;-68
2023/08/27 08:24:35;;;;;;;1999.90;999.90;;;16.50;99.90;;;;;;5067948;28;20036;-68
2023/08/27 08:27:02;;;;;;;1999.90;999.90;;;16.70;99.90;;;;;;5088537;28;20046;-68
2023/08/27 08:29:34;;;;;;;1999.90;999.90;;;16.70;99.90;;;;;;5072382;28;20507;-69
2023/08/27 08:32:00;;;;;;;1999.90;999.90;;;16.70;99.90;;;;;;5086815;28;20044;-69
2023/08/27 08:34:27;;;;;;;1999.90;999.90;;;16.80;99.90;;;;;;5065985;28;20056;-68
2023/08/27 08:36:54;;;;;;;1999.90;999.90;;;16.90;99.90;;;;;;5089964;28;20115;-68
2023/08/27 08:39:19;;;;;;;1999.90;999.90;;;17.00;99.90;;;;;;5088494;28;20158;-69
2023/08/27 08:41:59;;;;;;;1999.90;999.90;;;17.20;99.90;;;;;;5069987;28;20563;-69
2023/08/27 08:44:39;;;;;;;1999.90;999.90;;;17.40;99.90;;;;;;5105933;28;20087;-69
2023/08/27 08:47:09;;;;;;;1999.90;999.90;;;17.50;99.90;;;;;;5087777;28;20437;-69
2023/08/27 08:49:38;;;;;;;1154.22;646.63;;;17.50;99.90;;;;;;5066656;28;20646;-69
2023/08/27 08:52:08;;;;;;;1999.90;999.90;;;17.40;99.90;;;;;;5089442;28;20043;-68
2023/08/27 08:54:37;;;;;;;1999.90;999.90;;;17.40;99.90;;;;;;5085635;28;20039;-69
2023/08/27 08:57:07;;;;;;;552.35;518.25;;;17.70;99.90;;;;;;5088531;28;20044;-69
2023/08/27 08:59:33;;;;;;;489.35;460.35;;;18.50;99.90;;;;;;5082548;28;20086;-68
2023/08/27 09:01:59;;;;;;;500.85;471.00;;;19.10;99.90;;;;;;5085872;28;20048;-69
2023/08/27 09:04:25;;;;;;;544.58;511.85;;;19.30;99.90;;;;;;5085864;28;20052;-69
2023/08/27 09:06:53;;;;;;;403.63;381.67;;;19.30;99.90;;;;;;5087929;28;20089;-68
2023/08/27 09:09:21;;;;;;;533.42;501.80;;;19.20;99.90;;;;;;5083863;28;21814;-69
2023/08/27 09:11:49;;;;;;;631.22;591.72;;;19.00;99.90;;;;;;5083790;28;20078;-68
2023/08/27 09:14:15;;;;;;;563.63;528.42;;;19.50;99.90;;;;;;5064070;28;20122;-68
2023/08/27 09:16:41;;;;;;;477.13;449.60;;;20.10;99.90;;;;;;5071399;28;20074;-69
2023/08/27 09:19:07;;;;;;;473.80;446.55;;;20.40;99.90;;;;;;5066097;28;20516;-69
2023/08/27 09:21:34;;;;;;;402.95;381.65;;;20.60;99.90;;;;;;5104515;28;20139;-69
2023/08/27 09:24:00;;;;;;;388.67;366.85;;;20.80;99.90;;;;;;5070314;28;20036;-69
2023/08/27 09:26:25;;;;;;;446.25;422.17;;;20.70;99.90;;;;;;5067264;28;20389;-69
2023/08/27 09:28:52;;;;;;;444.52;420.55;;;20.50;99.90;;;;;;5102276;28;20046;-69
2023/08/27 09:31:40;;;;;;;345.92;328.23;;;20.50;99.90;;;;;;5086266;28;20039;-69
2023/08/27 09:34:06;;;;;;;298.27;283.75;;;20.30;99.90;;;;;;5088308;28;20051;-69
2023/08/27 09:36:38;;;;;;;340.02;322.80;;;20.10;99.90;;;;;;5082040;28;20043;-68
2023/08/27 09:39:11;;;;;;;201.23;191.90;;;19.80;99.90;;;;;;5082762;28;20427;-69
2023/08/27 09:41:41;;;;;;;238.02;226.80;;;19.80;99.90;;;;;;5082595;28;20094;-69
2023/08/27 09:44:08;;;;;;;256.55;244.98;;;19.70;99.90;;;;;;5087370;28;20048;-68
2023/08/27 09:46:35;;;;;;;212.38;202.60;;;19.50;99.90;;;;;;5083460;28;20046;-68
2023/08/27 09:49:06;;;;;;;296.10;281.85;;;19.30;99.90;;;;;;5078566;28;20045;-68
2023/08/27 09:51:33;;;;;;;319.30;303.75;;;19.30;99.90;;;;;;5086244;28;20120;-68
2023/08/27 09:53:59;;;;;;;230.45;219.93;;;19.40;99.90;;;;;;5086314;28;20155;-68
2023/08/27 09:56:26;;;;;;;293.90;279.27;;;19.70;99.90;;;;;;5068931;28;20032;-69
2023/08/27 09:58:54;;;;;;;332.58;316.08;;;20.00;99.90;;;;;;5087560;28;20050;-68
2023/08/27 10:01:21;;;;;;;259.20;247.38;;;20.40;99.90;;;;;;5084140;28;20447;-69
2023/08/27 10:03:47;;;;;;;178.13;170.20;;;20.90;99.90;;;;;;5067878;28;20109;-68
2023/08/27 10:06:14;;;;;;;171.52;163.95;;;21.10;99.90;;;;;;5087047;28;20058;-68
2023/08/27 10:08:51;;;;;;;189.50;181.20;;;21.20;99.90;;;;;;5086812;28;20067;-68
2023/08/27 10:11:17;;;;;;;238.35;227.32;;;21.40;99.90;;;;;;5067292;28;20051;-68
2023/08/27 10:13:44;;;;;;;239.63;228.38;;;21.50;99.90;;;;;;5086966;28;20089;-69
2023/08/27 10:16:11;;;;;;;236.40;225.18;;;21.60;99.90;;;;;;5087098;28;20039;-68
2023/08/27 10:18:38;;;;;;;301.63;285.73;;;21.80;99.90;;;;;;5083574;28;20040;-68
2023/08/27 10:21:07;;;;;;;245.70;233.60;;;21.90;99.90;;;;;;5082654;28;20043;-68
2023/08/27 10:23:33;;;;;;;304.67;289.48;;;21.80;99.90;;;;;;5086837;28;20040;-68
2023/08/27 10:26:00;;;;;;;232.18;221.18;;;21.60;99.90;;;;;;5085507;28;20052;-68
2023/08/27 10:28:27;;;;;;;246.80;234.95;;;21.40;99.90;;;;;;5101647;28;20491;-68
2023/08/27 10:30:55;;;;;;;278.42;264.90;;;21.00;99.90;;;;;;5087042;28;20040;-69
2023/08/27 10:33:20;;;;;;;223.75;213.05;;;20.60;99.90;;;;;;5085713;28;20044;-68
2023/08/27 10:35:48;;;;;;;249.98;238.18;;;20.40;99.90;;;;;;5065328;28;20044;-68
2023/08/27 10:38:15;;;;;;;232.65;221.63;;;20.10;99.90;;;;;;5070950;28;20465;-68
2023/08/27 10:40:44;;;;;;;235.18;224.02;;;19.90;99.90;;;;;;5066207;28;20393;-68
2023/08/27 10:43:18;;;;;;;214.95;204.75;;;19.80;99.90;;;;;;5084849;28;20074;-68
2023/08/27 10:45:44;;;;;;;272.48;259.38;;;19.70;99.90;;;;;;5086305;28;20127;-68
2023/08/27 10:48:24;;;;;;;248.30;236.70;;;19.80;99.90;;;;;;5086677;28;20064;-68
2023/08/27 10:51:06;;;;;;;281.10;267.42;;;19.90;99.90;;;;;;5081047;28;20490;-68
2023/08/27 10:53:39;;;;;;;245.52;233.90;;;19.90;99.90;;;;;;5084401;28;20174;-67
2023/08/27 10:56:27;;;;;;;250.15;238.38;;;19.80;99.90;;;;;;5102364;28;20047;-68
2023/08/27 10:58:57;;;;;;;283.40;269.27;;;19.90;99.90;;;;;;5090888;28;20051;-68
2023/08/27 11:01:23;;;;;;;270.70;257.52;;;20.10;99.90;;;;;;5085941;28;20045;-68
2023/08/27 11:04:01;;;;;;;305.00;289.85;;;20.70;99.90;;;;;;5097799;28;20039;-68
2023/08/27 11:06:45;;;;;;;337.83;320.23;;;21.40;99.90;;;;;;5080893;28;20100;-68
2023/08/27 11:09:14;;;;;;;205.63;196.13;;;22.10;99.90;;;;;;5090682;28;20036;-68
2023/08/27 11:11:47;;;;;;;239.02;227.00;;;22.50;99.90;;;;;;5084575;28;20040;-69
2023/08/27 11:14:14;;;;;;;247.63;235.48;;;22.80;99.90;;;;;;5090146;28;20104;-68
2023/08/27 11:17:04;;;;;;;229.45;218.70;;;23.00;99.90;;;;;;5090286;28;20051;-68
2023/08/27 11:19:32;;;;;;;197.95;188.93;;;23.10;99.90;;;;;;5082252;28;20059;-68
2023/08/27 11:22:04;;;;;;;181.25;172.90;;;23.20;99.90;;;;;;5106802;28;20560;-69
2023/08/27 11:24:30;;;;;;;164.75;157.50;;;23.20;99.90;;;;;;5089704;28;20135;-68
2023/08/27 11:27:00;;;;;;;168.63;160.93;;;23.20;99.90;;;;;;5084903;28;20051;-68
2023/08/27 11:29:27;;;;;;;193.10;184.20;;;23.30;99.90;;;;;;5060784;28;20040;-68
2023/08/27 11:31:53;;;;;;;149.98;143.45;;;23.40;99.90;;;;;;5089939;28;20032;-68
2023/08/27 11:34:19;;;;;;;152.90;145.98;;;23.40;99.90;;;;;;5089641;28;20097;-68
2023/08/27 11:36:54;;;;;;;174.65;166.68;;;23.00;99.90;;;;;;5081596;28;20052;-68
2023/08/27 11:39:20;;;;;;;231.82;220.27;;;22.40;99.90;;;;;;5072667;28;20085;-68
2023/08/27 11:41:46;;;;;;;165.98;158.70;;;22.00;99.90;;;;;;5090055;28;20040;-69
2023/08/27 11:44:12;;;;;;;210.48;200.52;;;22.00;99.90;;;;;;5096349;28;20454;-69
2023/08/27 11:46:40;;;;;;;166.90;159.52;;;22.20;99.90;;;;;;5090087;28;20048;-68
2023/08/27 11:49:07;;;;;;;212.70;200.55;;;22.40;99.90;;;;;;5085972;28;20434;-69
2023/08/27 11:51:34;;;;;;;171.32;163.35;;;22.20;99.90;;;;;;5086559;28;20123;-69
2023/08/27 11:54:00;;;;;;;216.13;205.60;;;21.70;99.90;;;;;;5096019;28;20049;-69
2023/08/27 11:56:28;;;;;;;203.95;194.60;;;21.20;99.90;;;;;;5089670;28;20048;-68
2023/08/27 11:58:55;;;;;;;226.80;216.70;;;20.50;99.90;;;;;;5087094;28;20043;-69
2023/08/27 12:01:21;;;;;;;261.73;249.30;;;19.80;99.90;;;;;;5072556;28;20050;-69